Ireland METAR reports

 

EIDW - Dublin Airport, Ireland
Distance from station: WNW 13km
Updated: 22/01/2021 21:00
Partly cloudy
Partly cloudy
 Wind from W
Wind: W 19 km/h
Temperature: 1°C
Wind Chill: -4°C
Dew Point: 0°C
Humidity: 93%
Barometer: 993 hPa
Clouds: Partly cloudy
Visibility: 10 km
Cloud details: Few Clouds 305 m
Partly cloudy 427 m
2021/01/22 21:00 EIDW 222100Z 27010KT 9999 FEW010 SCT014 01/M00 Q0993 NOSIG
EIME - Casement (mil), Ireland
Distance from station: WSW 26km
Updated: 22/01/2021 21:00
Mostly cloudy
Mostly cloudy
 Wind from WSW
Wind: WSW 19 km/h
Temperature: 2°C
Wind Chill: -2°C
Dew Point: 0°C
Humidity: 87%
Barometer: 993 hPa
Clouds: Mostly cloudy
Visibility: 10 km
Cloud details: Partly cloudy 244 m
Partly cloudy 274 m
Mostly cloudy 457 m
2021/01/22 21:00 EIME 222100Z 25010KT 9999 SCT008 SCT009 BKN015 02/00 Q0993
 
EGAC - Belfast Harbour, United Kingdom
Distance from station: N 140km
Updated: 22/01/2021 21:20
Clear
Clear
 Wind from S
Wind: S 7 km/h
Temperature: 0°C
Wind Chill: -3°C
Dew Point: -1°C
Humidity: 93%
Barometer: 992 hPa
Clouds: Clear
Visibility: 8 km
2021/01/22 21:20 EGAC 222120Z AUTO 17004KT 8000 NCD M00/M01 Q0992
EGAA - Belfast/Aldergro, United Kingdom
Distance from station: N 141km
Updated: 22/01/2021 21:20
Clear
Clear
 Wind from SW
Wind: SW 7 km/h
Temperature: -1°C
Wind Chill: -4°C
Dew Point: -2°C
Humidity: 93%
Barometer: 992 hPa
Summary: Clear
Visibility: greater than 10 km
2021/01/22 21:20 EGAA 222120Z 23004KT CAVOK M01/M02 Q0992
 
EIWF - Waterford Arpt, Ireland
Distance from station: SSW 148km
Updated: 22/01/2021 20:30
Clear
Clear
 Wind from NW
Wind: NW 9 km/h
Temperature: 0°C
Wind Chill: -3°C
Dew Point: -2°C
Humidity: 87%
Barometer: 995 hPa
Summary: Clear
Visibility: greater than 10 km
2021/01/22 20:30 EIWF 222030Z 32005KT CAVOK 00/M02 Q0995 R03/1/////
EIKN - Connaught Apt, Ireland
Distance from station: WNW 191km
Updated: 20/01/2021 15:30
NOT Current
Few Clouds
Few Clouds
 Wind from NW
Wind: NW 11 km/h
Temperature: 3°C
Wind Chill: 0°C
Dew Point: 2°C
Humidity: 93%
Barometer: 979 hPa
Clouds: Few Clouds
Visibility: 10 km
Cloud details: Few Clouds 305 m
Few Clouds 610 m
2021/01/20 15:30 EIKN 201530Z 32006KT 9999 FEW010 FEW020CB 03/02 Q0979 NOSIG
 
EISG - Sligo Arpt, Ireland
Distance from station: WNW 195km
Updated: 22/01/2021 20:00
NOT Current
Partly cloudy
Partly cloudy
 Wind from S
Wind: S 6 km/h
Temperature: 1°C
Dew Point: 0°C
Humidity: 93%
Barometer: 994 hPa
Clouds: Partly cloudy
Visibility: 10 km
Cloud details: Partly cloudy 1189 m
Partly cloudy 1676 m
2021/01/22 20:00 EISG 222000Z 19003KT 9999 SCT039 SCT055 01/00 Q0994
EGAE - Eglinton/Londond, United Kingdom
Distance from station: NNW 198km
Updated: 22/01/2021 17:20
NOT Current
Nearby showers, Mostly cloudy
Nearby showers, Mostly cloudy
 Wind from WSW
Wind: WSW 13 km/h
Temperature: 2°C
Wind Chill: -1°C
Dew Point: 2°C
Humidity: 100%
Barometer: 992 hPa
Summary: Nearby Showers
Clouds: Mostly cloudy
Visibility: 10 km
Cloud details: Few Clouds 122 m
Partly cloudy 305 m
Mostly cloudy 1006 m
2021/01/22 17:20 EGAE 221720Z 24007KT 9999 VCSH FEW004 SCT010 BKN033 02/02 Q0992 RESHRA
 
EINN - Shannon Airport, Ireland
Distance from station: WSW 204km
Updated: 22/01/2021 21:00
Clear
Clear
 Wind from NW
Wind: NW 7 km/h
Temperature: 0°C
Wind Chill: -3°C
Dew Point: -1°C
Humidity: 93%
Barometer: 995 hPa
Summary: Clear
Visibility: greater than 10 km
2021/01/22 21:00 EINN 222100Z 32004KT CAVOK 00/M01 Q0995 NOSIG
EICK - Cork Arpt/Corcai, Ireland
Distance from station: SW 234km
Updated: 22/01/2021 21:00
Few Clouds
Few Clouds
 Wind from NW
Wind: NW 11 km/h
Temperature: 1°C
Wind Chill: -2°C
Dew Point: -1°C
Humidity: 87%
Barometer: 995 hPa
Clouds: Few Clouds
Visibility: 10 km
Cloud details: Few Clouds 732 m
2021/01/22 21:00 EICK 222100Z 31006KT 9999 FEW024 01/M01 Q0995 NOSIG